Time;durP1;ratioP1;P1;durP2;ratioP2;P2;SDS_P1;SDS_P2;PMS_P1;PMS_P2;Temp;Humidity;BMP_temperature;BMP_pressure;BME280_temperature;BME280_humidity;BME280_pressure;Samples;Min_cycle;Max_cycle;Signal;HPM_P1;HPM_P2
2023/07/22 00:01:09;;;;;;;4.22;2.35;;;;;;;15.45;82.58;101476.59;4993855;28;96664;-27
2023/07/22 00:03:34;;;;;;;4.95;2.70;;;;;;;15.49;82.49;101491.78;4995041;28;96855;-27
2023/07/22 00:06:08;;;;;;;6.85;2.90;;;;;;;15.52;82.79;101493.44;4997069;28;98926;-27
2023/07/22 00:08:34;;;;;;;5.07;2.45;;;;;;;15.44;82.99;101482.16;4995970;28;99251;-27
2023/07/22 00:11:00;;;;;;;7.13;2.60;;;;;;;15.42;82.87;101481.41;4996305;28;96572;-27
2023/07/22 00:13:28;;;;;;;5.47;2.38;;;;;;;15.39;82.88;101474.31;4997258;28;100549;-27
2023/07/22 00:15:54;;;;;;;5.85;2.50;;;;;;;15.37;82.58;101487.19;4995942;28;98970;-27
2023/07/22 00:18:19;;;;;;;4.60;2.20;;;;;;;15.35;82.88;101475.53;4997480;28;99059;-27
2023/07/22 00:20:45;;;;;;;5.97;2.70;;;;;;;15.34;82.83;101473.78;4997841;28;96604;-27
2023/07/22 00:23:10;;;;;;;5.15;2.08;;;;;;;15.37;82.86;101480.84;4997718;28;96752;-27
2023/07/22 00:25:36;;;;;;;5.35;2.60;;;;;;;15.33;82.74;101480.22;4996589;28;99400;-27
2023/07/22 00:28:01;;;;;;;5.18;2.35;;;;;;;15.34;82.74;101481.97;4997267;28;97832;-27
2023/07/22 00:30:28;;;;;;;4.68;2.40;;;;;;;15.29;82.62;101459.59;4997408;28;96568;-27
2023/07/22 00:32:53;;;;;;;4.72;2.47;;;;;;;15.28;82.14;101456.00;4997430;28;96792;-27
2023/07/22 00:35:19;;;;;;;4.57;2.28;;;;;;;15.29;82.59;101465.91;4996556;28;99234;-28
2023/07/22 00:37:44;;;;;;;5.38;1.88;;;;;;;15.24;83.01;101454.44;4996926;28;98350;-27
2023/07/22 00:40:11;;;;;;;5.15;2.05;;;;;;;15.21;82.77;101457.41;4997554;28;96502;-27
2023/07/22 00:42:38;;;;;;;3.60;2.03;;;;;;;15.20;82.58;101463.81;4996052;28;96911;-27
2023/07/22 00:45:04;;;;;;;4.53;1.98;;;;;;;15.19;82.62;101456.63;4995407;28;101076;-27
2023/07/22 00:47:29;;;;;;;3.35;1.85;;;;;;;15.19;82.91;101458.50;4996721;28;97987;-28
2023/07/22 00:49:55;;;;;;;4.47;1.88;;;;;;;15.19;82.71;101463.97;4995962;28;96868;-27
2023/07/22 00:52:21;;;;;;;4.47;2.30;;;;;;;15.13;83.24;101457.06;4995314;28;96858;-27
2023/07/22 00:54:46;;;;;;;3.78;2.17;;;;;;;15.16;83.10;101466.88;4996711;28;97873;-27
2023/07/22 00:57:12;;;;;;;3.63;1.83;;;;;;;15.08;83.66;101449.19;4996678;28;97242;-27
2023/07/22 00:59:39;;;;;;;4.25;2.00;;;;;;;15.06;83.24;101447.56;4997078;28;96504;-27
2023/07/22 01:02:04;;;;;;;6.68;2.10;;;;;;;15.08;83.39;101456.53;4995348;28;96907;-28
2023/07/22 01:04:34;;;;;;;3.65;1.98;;;;;;;15.03;83.44;101450.53;4996299;28;99465;-27
2023/07/22 01:07:00;;;;;;;4.03;2.30;;;;;;;15.03;83.41;101453.25;4995415;28;100927;-27
2023/07/22 01:09:25;;;;;;;6.88;2.13;;;;;;;15.02;83.21;101446.94;4995234;28;96594;-27
2023/07/22 01:11:51;;;;;;;2.92;1.80;;;;;;;15.01;83.39;101441.56;4996951;28;96758;-28
2023/07/22 01:14:16;;;;;;;3.85;2.13;;;;;;;14.99;82.96;101440.78;4995493;28;99728;-26
2023/07/22 01:16:42;;;;;;;3.05;1.77;;;;;;;15.03;83.23;101447.78;4995151;28;99232;-27
2023/07/22 01:19:10;;;;;;;3.47;1.67;;;;;;;15.03;82.09;101445.94;4996591;28;96586;-27
2023/07/22 01:21:37;;;;;;;4.53;1.42;;;;;;;15.03;82.32;101442.34;4995176;28;96888;-27
2023/07/22 01:24:02;;;;;;;4.75;1.65;;;;;;;15.01;83.11;101439.69;4994895;28;101136;-27
2023/07/22 01:26:27;;;;;;;4.90;1.90;;;;;;;15.09;82.48;101436.47;4996322;28;97944;-27
2023/07/22 01:29:05;;;;;;;2.00;1.40;;;;;;;15.12;82.96;101438.97;4996556;28;96551;-27
2023/07/22 01:31:34;;;;;;;3.00;1.40;;;;;;;15.15;82.64;101446.91;4996443;28;96714;-28
2023/07/22 01:33:59;;;;;;;3.38;1.75;;;;;;;15.13;82.97;101432.50;4994759;28;100803;-29
2023/07/22 01:36:25;;;;;;;3.15;1.60;;;;;;;15.18;82.37;101430.34;4995928;28;97775;-27
2023/07/22 01:38:50;;;;;;;2.47;1.42;;;;;;;15.13;82.56;101421.59;4995659;28;96592;-27
2023/07/22 01:41:15;;;;;;;1.77;1.20;;;;;;;15.13;82.97;101431.63;4996569;28;96800;-27
2023/07/22 01:43:41;;;;;;;2.40;1.42;;;;;;;15.18;83.26;101433.06;4996115;28;97916;-27
2023/07/22 01:46:06;;;;;;;3.75;1.30;;;;;;;15.09;83.06;101414.63;4996163;28;97609;-27
2023/07/22 01:48:32;;;;;;;2.03;1.25;;;;;;;15.17;82.78;101425.84;4994287;28;96800;-28
2023/07/22 01:50:58;;;;;;;2.85;1.23;;;;;;;15.17;82.86;101425.84;4995787;28;98149;-27
2023/07/22 01:53:23;;;;;;;3.42;1.45;;;;;;;15.16;82.96;101424.13;4995827;28;97900;-27
2023/07/22 01:55:49;;;;;;;2.88;1.60;;;;;;;15.18;82.54;101424.00;4996177;28;97738;-28
2023/07/22 01:58:14;;;;;;;2.17;1.20;;;;;;;15.14;81.96;101415.16;4996137;28;96636;-27
2023/07/22 02:00:40;;;;;;;2.72;1.35;;;;;;;15.19;81.96;101410.25;4994391;28;96815;-27
2023/07/22 02:03:05;;;;;;;2.35;1.23;;;;;;;15.17;82.71;101406.75;4995286;28;97506;-28
2023/07/22 02:05:30;;;;;;;2.13;1.35;;;;;;;15.19;82.01;101410.25;4995620;28;102288;-27
2023/07/22 02:07:56;;;;;;;3.25;1.40;;;;;;;15.17;81.18;101411.34;4995971;28;96760;-27
2023/07/22 02:10:21;;;;;;;2.75;1.33;;;;;;;15.19;82.45;101421.16;4994748;28;96787;-27
2023/07/22 02:12:47;;;;;;;3.33;1.65;;;;;;;15.15;82.59;101413.31;4995570;28;97377;-27
2023/07/22 02:15:12;;;;;;;2.67;1.45;;;;;;;15.16;82.79;101412.31;4995001;28;99151;-27
2023/07/22 02:17:37;;;;;;;2.33;1.35;;;;;;;15.16;82.79;101407.75;4995545;28;96559;-27
2023/07/22 02:20:04;;;;;;;2.60;1.48;;;;;;;15.15;82.34;101408.72;4996457;28;96672;-27
2023/07/22 02:22:30;;;;;;;2.65;1.55;;;;;;;15.17;82.69;101417.66;4993842;28;100996;-27
2023/07/22 02:24:55;;;;;;;3.53;1.70;;;;;;;15.11;82.47;101407.22;4995111;28;99296;-28
2023/07/22 02:27:20;;;;;;;3.63;1.40;;;;;;;15.13;83.03;101409.81;4994842;28;96773;-28
2023/07/22 02:29:46;;;;;;;2.92;1.30;;;;;;;15.09;82.54;101403.72;4995606;28;96837;-28
2023/07/22 02:32:11;;;;;;;2.38;1.20;;;;;;;15.11;82.64;101414.50;4993695;28;100795;-27
2023/07/22 02:34:37;;;;;;;3.40;1.27;;;;;;;15.08;82.66;101407.41;4995207;28;97212;-28
2023/07/22 02:37:03;;;;;;;2.45;1.35;;;;;;;15.04;82.64;101400.41;4995389;28;96881;-27
2023/07/22 02:39:28;;;;;;;2.25;1.35;;;;;;;15.05;82.26;101397.59;4994039;28;97072;-27
2023/07/22 02:41:53;;;;;;;2.83;1.42;;;;;;;15.02;82.67;101396.94;4995309;28;97899;-28
2023/07/22 02:44:19;;;;;;;3.42;1.35;;;;;;;14.99;82.50;101392.59;4995318;28;97732;-28
2023/07/22 02:46:44;;;;;;;2.92;1.45;;;;;;;15.03;82.64;101399.53;4995367;28;96543;-27
2023/07/22 02:49:09;;;;;;;2.15;1.27;;;;;;;14.97;82.72;101389.09;4994511;28;96849;-28
2023/07/22 02:51:35;;;;;;;2.28;1.33;;;;;;;14.99;83.38;101395.31;4994061;28;99499;-28
2023/07/22 02:54:01;;;;;;;3.45;1.52;;;;;;;14.98;83.12;101395.41;4994941;28;97910;-27
2023/07/22 02:56:26;;;;;;;3.05;1.20;;;;;;;14.94;82.87;101394.75;4995237;28;96539;-27
2023/07/22 02:58:52;;;;;;;2.95;1.52;;;;;;;14.89;82.53;101380.56;4995177;28;96778;-27
2023/07/22 03:01:18;;;;;;;2.92;1.27;;;;;;;14.91;82.21;101396.84;4994608;28;99459;-27
2023/07/22 03:03:44;;;;;;;2.22;1.23;;;;;;;14.93;82.85;101401.19;4994732;28;97848;-27
2023/07/22 03:06:09;;;;;;;3.35;1.25;;;;;;;14.89;82.94;101390.59;4994886;28;96614;-27
2023/07/22 03:08:35;;;;;;;3.85;1.98;;;;;;;14.89;83.25;101401.53;4995526;28;96522;-27
2023/07/22 03:11:01;;;;;;;3.80;1.50;;;;;;;14.86;82.87;101399.88;4993244;28;98961;-27
2023/07/22 03:13:29;;;;;;;3.38;1.58;;;;;;;14.88;83.00;101407.97;4994510;28;97879;-28
2023/07/22 03:15:55;;;;;;;3.63;1.90;;;;;;;14.85;83.16;101404.47;4993175;28;96645;-27
2023/07/22 03:18:20;;;;;;;4.60;2.05;;;;;;;14.81;83.04;101396.63;4995007;28;96779;-27
2023/07/22 03:20:45;;;;;;;4.47;1.92;;;;;;;14.85;83.14;101406.34;4994632;28;97564;-28
2023/07/22 03:23:11;;;;;;;3.47;1.58;;;;;;;14.85;82.96;101403.59;4993124;28;98225;-27
2023/07/22 03:25:36;;;;;;;4.40;2.00;;;;;;;14.83;83.55;101406.44;4994612;28;96654;-27
2023/07/22 03:28:04;;;;;;;2.72;1.63;;;;;;;14.86;84.18;101402.63;4994665;28;96761;-28
2023/07/22 03:30:30;;;;;;;3.78;2.10;;;;;;;14.82;84.73;101406.53;4992894;28;101332;-27
2023/07/22 03:32:56;;;;;;;5.60;2.33;;;;;;;14.85;84.43;101418.09;4994927;28;97980;-27
2023/07/22 03:35:21;;;;;;;4.03;1.95;;;;;;;14.82;83.70;101407.41;4994635;28;96863;-27
2023/07/22 03:37:47;;;;;;;6.47;3.13;;;;;;;14.84;83.89;101410.03;4994994;28;96921;-27
2023/07/22 03:40:26;;;;;;;6.88;2.25;;;;;;;14.90;83.61;101422.34;4997125;28;97922;-28
2023/07/22 03:42:52;;;;;;;6.63;3.03;;;;;;;14.92;83.32;101423.13;4996227;28;101015;-28
2023/07/22 03:45:19;;;;;;;6.05;3.13;;;;;;;14.94;83.15;101419.28;4996741;28;96722;-27
2023/07/22 03:47:46;;;;;;;7.25;3.50;;;;;;;14.97;86.46;101418.19;4996597;28;96844;-27
2023/07/22 03:50:11;;;;;;;9.77;3.80;;;;;;;14.90;85.53;101409.59;4995732;28;100984;-27
2023/07/22 03:52:37;;;;;;;6.90;3.45;;;;;;;14.96;85.71;101419.19;4997599;28;97833;-27
2023/07/22 03:55:05;;;;;;;7.82;3.50;;;;;;;14.99;84.60;101418.97;4997842;28;97057;-27
2023/07/22 03:57:31;;;;;;;6.55;3.42;;;;;;;14.99;84.56;101416.25;4996905;28;96944;-27
2023/07/22 03:59:56;;;;;;;12.52;3.80;;;;;;;14.99;84.10;101421.69;4997681;28;97601;-27
2023/07/22 04:02:22;;;;;;;11.40;3.70;;;;;;;15.03;84.21;101424.09;4997555;28;97794;-28
2023/07/22 04:04:48;;;;;;;8.43;3.80;;;;;;;15.05;84.21;101419.41;4997495;28;96467;-27
2023/07/22 04:07:13;;;;;;;8.60;4.20;;;;;;;15.02;84.47;101416.91;4996298;28;96907;-27
2023/07/22 04:09:38;;;;;;;9.50;3.67;;;;;;;15.04;85.29;101422.25;4997062;28;97481;-27
2023/07/22 04:12:04;;;;;;;8.05;3.75;;;;;;;15.06;85.41;101409.38;4997412;28;97902;-27
2023/07/22 04:14:30;;;;;;;8.07;3.80;;;;;;;15.03;85.79;101413.19;4997509;28;96496;-27
2023/07/22 04:16:55;;;;;;;8.52;3.92;;;;;;;15.03;86.69;101406.88;4997760;28;96782;-27
2023/07/22 04:19:21;;;;;;;12.02;3.85;;;;;;;15.01;85.67;101404.22;4997131;28;98890;-28
2023/07/22 04:21:46;;;;;;;8.82;4.55;;;;;;;15.09;85.29;101406.44;4997687;28;97823;-27
2023/07/22 04:24:11;;;;;;;9.05;4.55;;;;;;;15.08;85.32;101402.81;4997363;28;96463;-27
2023/07/22 04:26:37;;;;;;;12.60;4.78;;;;;;;15.04;85.92;101394.94;4997266;28;96835;-27
2023/07/22 04:29:03;;;;;;;12.55;4.35;;;;;;;15.01;87.07;101390.59;4996627;28;97932;-28
2023/07/22 04:31:28;;;;;;;12.13;4.82;;;;;;;15.05;87.88;101400.31;4995524;28;100858;-27
2023/07/22 04:33:53;;;;;;;8.50;4.28;;;;;;;15.04;88.43;101411.31;4997540;28;96595;-28
2023/07/22 04:36:19;;;;;;;12.88;5.10;;;;;;;15.05;88.34;101407.63;4997472;28;96824;-27
2023/07/22 04:38:44;;;;;;;9.23;4.30;;;;;;;15.02;87.64;101411.47;4997265;28;97459;-28
2023/07/22 04:41:09;;;;;;;10.20;4.38;;;;;;;15.04;88.15;101401.31;4996610;28;100983;-27
2023/07/22 04:43:35;;;;;;;12.95;5.30;;;;;;;15.06;89.92;101409.38;4997088;28;96614;-27
2023/07/22 04:46:00;;;;;;;8.88;3.92;;;;;;;15.08;88.93;101421.91;4997591;28;96723;-28
2023/07/22 04:48:26;;;;;;;11.15;4.60;;;;;;;15.08;87.79;101413.72;4996408;28;97873;-27
2023/07/22 04:50:51;;;;;;;13.15;5.00;;;;;;;15.12;88.52;101425.31;4996559;28;97175;-28
2023/07/22 04:53:18;;;;;;;14.23;4.53;;;;;;;15.10;89.57;101427.28;4996707;28;96471;-27
2023/07/22 04:55:43;;;;;;;11.77;5.03;;;;;;;15.13;89.30;101421.59;4995482;28;96851;-27
2023/07/22 04:58:10;;;;;;;9.27;4.70;;;;;;;15.15;88.39;101413.31;4996532;28;99430;-28
2023/07/22 05:00:37;;;;;;;9.82;4.70;;;;;;;15.20;88.72;101417.44;4996393;28;98816;-27
2023/07/22 05:03:02;;;;;;;13.40;4.57;;;;;;;15.19;88.64;101418.44;4996856;28;96489;-29
2023/07/22 05:05:28;;;;;;;11.65;4.47;;;;;;;15.20;88.32;101409.25;4996939;28;96835;-27
2023/07/22 05:07:53;;;;;;;9.23;4.10;;;;;;;15.28;88.31;101409.59;4996511;28;98111;-30
2023/07/22 05:10:19;;;;;;;9.57;4.53;;;;;;;15.28;89.50;101414.19;4996551;28;99178;-27
2023/07/22 05:12:45;;;;;;;12.13;4.88;;;;;;;15.26;88.54;101403.34;4996550;28;96558;-27
2023/07/22 05:15:11;;;;;;;11.13;4.43;;;;;;;15.29;89.84;101416.78;4995225;28;96812;-28
2023/07/22 05:17:37;;;;;;;10.65;4.90;;;;;;;15.26;90.02;101407.94;4994496;28;101392;-27
2023/07/22 05:20:06;;;;;;;10.20;4.10;;;;;;;15.29;90.62;101405.00;4996061;28;99137;-27
2023/07/22 05:22:31;;;;;;;12.88;4.80;;;;;;;15.31;90.13;101399.44;4995157;28;96609;-28
2023/07/22 05:24:56;;;;;;;7.78;4.32;;;;;;;15.35;89.87;101401.81;4996461;28;96846;-27
2023/07/22 05:27:22;;;;;;;12.40;5.22;;;;;;;15.39;88.74;101403.31;4996286;28;97553;-27
2023/07/22 05:29:47;;;;;;;9.30;4.40;;;;;;;15.47;88.08;101400.94;4996176;28;97729;-28
2023/07/22 05:32:13;;;;;;;10.18;4.55;;;;;;;15.45;90.02;101397.44;4996636;28;96724;-28
2023/07/22 05:34:38;;;;;;;10.40;4.68;;;;;;;15.48;89.24;101408.13;4995380;28;96827;-27
2023/07/22 05:37:04;;;;;;;8.82;4.32;;;;;;;15.51;89.33;101396.97;4995978;28;98022;-28
2023/07/22 05:39:29;;;;;;;10.38;3.78;;;;;;;15.54;90.23;101404.09;4995631;28;99380;-28
2023/07/22 05:41:54;;;;;;;11.52;4.32;;;;;;;15.54;91.44;101397.72;4996000;28;96740;-27
2023/07/22 05:44:22;;;;;;;9.60;4.22;;;;;;;15.58;91.51;101399.25;4996209;28;96514;-27
2023/07/22 05:46:47;;;;;;;9.23;4.13;;;;;;;15.60;89.70;101384.50;4995791;28;99810;-27
2023/07/22 05:49:12;;;;;;;11.27;3.90;;;;;;;15.65;90.86;101398.69;4995641;28;97454;-27
2023/07/22 05:51:38;;;;;;;10.73;4.18;;;;;;;15.65;91.80;101401.41;4995989;28;96539;-27
2023/07/22 05:54:04;;;;;;;12.35;4.00;;;;;;;15.70;91.58;101401.09;4996196;28;96806;-29
2023/07/22 05:56:29;;;;;;;14.60;4.38;;;;;;;15.69;90.42;101386.53;4994348;28;101411;-27
2023/07/22 05:58:55;;;;;;;8.45;4.32;;;;;;;15.73;91.70;101387.25;4996278;28;97287;-27
2023/07/22 06:01:21;;;;;;;13.77;4.75;;;;;;;15.76;90.69;101397.94;4994957;28;96538;-27
2023/07/22 06:03:46;;;;;;;9.32;4.35;;;;;;;15.76;89.52;101389.72;4995858;28;96742;-27
2023/07/22 06:06:12;;;;;;;9.15;4.30;;;;;;;15.79;90.77;101394.97;4994949;28;99634;-27
2023/07/22 06:08:37;;;;;;;7.55;3.42;;;;;;;15.83;91.57;101403.81;4994986;28;113253;-27
2023/07/22 06:11:02;;;;;;;9.93;4.30;;;;;;;15.82;90.94;101397.44;4995935;28;96745;-27
2023/07/22 06:13:28;;;;;;;10.15;3.75;;;;;;;15.85;91.23;101396.34;4995809;28;96795;-27
2023/07/22 06:15:53;;;;;;;10.57;4.40;;;;;;;15.93;90.43;101396.66;4995578;28;97404;-27
2023/07/22 06:18:18;;;;;;;10.30;3.72;;;;;;;15.94;90.07;101392.94;4995450;28;97404;-27
2023/07/22 06:20:45;;;;;;;12.20;4.47;;;;;;;15.99;90.60;101398.03;4995742;28;96628;-27
2023/07/22 06:23:10;;;;;;;12.50;4.57;;;;;;;16.06;91.74;101411.13;4994394;28;96969;-27
2023/07/22 06:25:35;;;;;;;10.63;4.00;;;;;;;16.09;90.69;101399.97;4993943;28;98027;-27
2023/07/22 06:28:01;;;;;;;8.82;3.65;;;;;;;16.12;90.28;101404.34;4995719;28;97255;-27
2023/07/22 06:30:27;;;;;;;10.52;3.85;;;;;;;16.09;90.40;101396.38;4994859;28;96555;-27
2023/07/22 06:32:52;;;;;;;10.35;4.13;;;;;;;16.21;90.51;101402.75;4995342;28;96850;-27
2023/07/22 06:35:18;;;;;;;10.45;4.55;;;;;;;16.15;91.04;101393.16;4995146;28;98503;-27
2023/07/22 06:37:43;;;;;;;10.48;4.78;;;;;;;16.20;91.45;101401.00;4995017;28;97777;-27
2023/07/22 06:40:09;;;;;;;10.93;3.83;;;;;;;16.19;92.04;101388.34;4995436;28;96704;-27
2023/07/22 06:42:34;;;;;;;9.50;4.07;;;;;;;16.28;91.78;101393.06;4995187;28;96843;-27
2023/07/22 06:44:59;;;;;;;7.53;3.60;;;;;;;16.40;91.73;101394.00;4995087;28;98006;-27
2023/07/22 06:47:25;;;;;;;10.05;3.83;;;;;;;16.52;90.65;101387.59;4995488;28;98069;-28
2023/07/22 06:49:50;;;;;;;10.18;4.63;;;;;;;16.66;90.07;101383.75;4994745;28;96764;-27
2023/07/22 06:52:16;;;;;;;11.15;4.38;;;;;;;16.74;89.60;101390.38;4994454;28;96882;-27
2023/07/22 06:54:41;;;;;;;9.32;4.07;;;;;;;16.75;88.76;101385.78;4994518;28;97912;-27
2023/07/22 06:57:07;;;;;;;8.80;4.57;;;;;;;16.71;88.94;101376.09;4995283;28;97318;-27
2023/07/22 06:59:32;;;;;;;12.50;4.45;;;;;;;16.70;89.71;101383.41;4995020;28;96489;-28
2023/07/22 07:01:58;;;;;;;8.80;4.38;;;;;;;16.63;89.66;101376.66;4995112;28;96757;-27
2023/07/22 07:04:23;;;;;;;10.88;4.15;;;;;;;16.62;90.22;101385.00;4994482;28;99837;-27
2023/07/22 07:06:50;;;;;;;6.35;3.53;;;;;;;16.62;90.69;101385.00;4994576;28;97854;-27
2023/07/22 07:09:15;;;;;;;11.13;3.95;;;;;;;16.58;91.05;101386.25;4993606;28;96646;-27
2023/07/22 07:11:41;;;;;;;7.85;3.90;;;;;;;16.69;90.72;101402.69;4995290;28;96828;-28
2023/07/22 07:14:06;;;;;;;8.70;3.95;;;;;;;16.77;90.32;101403.81;4994398;28;99507;-27
2023/07/22 07:16:32;;;;;;;15.70;5.22;;;;;;;16.87;88.83;101403.97;4994653;28;98244;-28
2023/07/22 07:18:59;;;;;;;12.65;4.70;;;;;;;16.92;89.26;101399.03;4994205;28;96557;-27
2023/07/22 07:21:24;;;;;;;9.98;4.75;;;;;;;16.94;88.99;101396.16;4993032;28;96866;-27
2023/07/22 07:23:50;;;;;;;9.10;4.30;;;;;;;16.87;88.65;101395.78;4994739;28;97336;-27
2023/07/22 07:26:16;;;;;;;8.60;4.60;;;;;;;16.92;88.47;101404.50;4992998;28;101382;-28
2023/07/22 07:28:42;;;;;;;9.38;4.53;;;;;;;16.95;89.13;101401.53;4994712;28;96519;-27
2023/07/22 07:31:07;;;;;;;10.57;4.13;;;;;;;16.98;88.72;101397.66;4994671;28;96764;-27
2023/07/22 07:33:33;;;;;;;8.27;4.18;;;;;;;17.04;88.01;101394.47;4994804;28;97580;-27
2023/07/22 07:35:59;;;;;;;9.35;3.70;;;;;;;17.06;88.52;101395.19;4992752;28;101776;-28
2023/07/22 07:38:24;;;;;;;12.07;4.45;;;;;;;17.09;88.39;101391.31;4994455;28;96507;-27
2023/07/22 07:40:55;;;;;;;7.22;4.07;;;;;;;17.11;87.45;101384.75;4994418;28;96929;-27
2023/07/22 07:43:21;;;;;;;11.63;4.27;;;;;;;17.18;87.21;101396.94;4992273;28;101104;-27
2023/07/22 07:45:46;;;;;;;7.68;4.45;;;;;;;17.31;86.88;101396.81;4994301;28;97757;-27
2023/07/22 07:48:11;;;;;;;11.15;4.63;;;;;;;17.34;86.46;101388.34;4994300;28;96635;-27
2023/07/22 07:50:37;;;;;;;7.95;3.65;;;;;;;17.44;86.59;101379.38;4994060;28;96756;-27
2023/07/22 07:53:02;;;;;;;8.82;4.07;;;;;;;17.59;86.71;101386.31;4994247;28;97445;-27
2023/07/22 07:55:30;;;;;;;11.10;4.25;;;;;;;17.65;85.77;101374.00;4994035;28;98806;-27
2023/07/22 07:57:55;;;;;;;9.55;4.22;;;;;;;18.00;84.93;101382.91;4994192;28;96562;-27
2023/07/22 08:00:21;;;;;;;10.93;3.80;;;;;;;18.22;83.87;101389.31;4994640;28;96806;-27
2023/07/22 08:02:47;;;;;;;8.15;4.05;;;;;;;18.41;83.07;101381.25;4994154;28;97462;-27
2023/07/22 08:05:12;;;;;;;10.13;4.13;;;;;;;18.48;82.96;101375.22;4993614;28;99571;-27
2023/07/22 08:07:38;;;;;;;6.65;3.70;;;;;;;18.56;82.05;101376.28;4994167;28;96534;-27
2023/07/22 08:10:07;;;;;;;9.45;3.85;;;;;;;18.41;82.28;101383.97;4994698;28;97182;-27
2023/07/22 08:12:32;;;;;;;12.60;4.10;;;;;;;18.55;82.40;101390.16;4993673;28;98077;-27
2023/07/22 08:14:57;;;;;;;5.78;3.05;;;;;;;18.82;81.62;101382.28;4984270;28;97788;-27
2023/07/22 08:17:23;;;;;;;11.23;4.05;;;;;;;18.99;79.64;101371.69;4974294;28;96690;-27
2023/07/22 08:19:49;;;;;;;6.72;3.25;;;;;;;19.14;79.11;101391.41;4984505;28;96853;-27
2023/07/22 08:22:14;;;;;;;5.30;2.75;;;;;;;19.24;76.95;101384.09;4990282;28;98796;-27
2023/07/22 08:24:39;;;;;;;6.70;2.65;;;;;;;19.36;78.21;101371.16;4994713;28;97900;-27
2023/07/22 08:27:05;;;;;;;5.70;2.67;;;;;;;19.33;76.72;101380.53;4997431;28;96828;-27
2023/07/22 08:29:31;;;;;;;8.63;2.63;;;;;;;19.14;76.03;101374.94;4997657;28;96782;-27
2023/07/22 08:31:56;;;;;;;6.85;2.55;;;;;;;18.98;74.62;101376.31;4995051;28;100768;-29
2023/07/22 08:34:22;;;;;;;5.78;2.58;;;;;;;19.00;76.16;101376.19;4996910;28;97783;-27
2023/07/22 08:36:47;;;;;;;7.35;2.47;;;;;;;19.02;75.84;101376.88;4997318;28;96498;-28
2023/07/22 08:39:12;;;;;;;3.63;2.45;;;;;;;19.12;75.95;101375.09;4996291;28;96924;-28
2023/07/22 08:41:38;;;;;;;5.65;2.28;;;;;;;19.08;76.55;101379.09;4994462;28;97849;-31
2023/07/22 08:44:06;;;;;;;4.50;2.28;;;;;;;19.01;76.55;101367.78;4992974;28;100764;-27
2023/07/22 08:46:33;;;;;;;6.60;2.90;;;;;;;19.04;77.18;101364.78;4993181;28;97160;-28
2023/07/22 08:49:00;;;;;;;6.95;3.00;;;;;;;19.07;76.25;101370.00;4994341;28;97333;-27
2023/07/22 08:51:29;;;;;;;8.23;2.60;;;;;;;19.10;75.89;101371.59;4992336;28;100957;-28
2023/07/22 08:53:59;;;;;;;4.32;2.15;;;;;;;19.17;75.92;101371.94;4994742;28;99763;-27
2023/07/22 08:56:25;;;;;;;4.35;1.77;;;;;;;19.17;75.53;101372.78;4995145;28;96566;-27
2023/07/22 08:58:55;;;;;;;5.50;2.30;;;;;;;19.26;75.54;101371.97;4995597;28;96881;-27
2023/07/22 09:01:21;;;;;;;6.32;2.08;;;;;;;19.29;75.31;101368.94;4995049;28;101336;-28
2023/07/22 09:03:48;;;;;;;5.15;2.20;;;;;;;19.36;74.85;101369.25;4996799;28;97303;-27
2023/07/22 09:06:14;;;;;;;3.78;2.08;;;;;;;19.77;74.11;101378.38;4995478;28;96583;-28
2023/07/22 09:08:40;;;;;;;5.40;2.25;;;;;;;19.93;72.65;101370.44;4997038;28;96728;-27
2023/07/22 09:11:06;;;;;;;3.63;2.05;;;;;;;19.93;72.67;101369.59;4996141;28;99236;-27
2023/07/22 09:13:32;;;;;;;6.82;2.47;;;;;;;20.13;71.18;101370.47;4995304;28;101240;-27
2023/07/22 09:15:59;;;;;;;2.67;1.50;;;;;;;20.33;70.34;101383.22;4995085;28;96777;-27
2023/07/22 09:18:24;;;;;;;5.57;2.20;;;;;;;20.44;68.13;101360.16;4996709;28;96833;-26
2023/07/22 09:20:50;;;;;;;5.38;1.60;;;;;;;20.66;68.24;101360.91;4995922;28;97929;-27
2023/07/22 09:23:15;;;;;;;4.07;1.92;;;;;;;21.09;68.64;101363.09;4994497;28;101121;-28
2023/07/22 09:25:42;;;;;;;5.43;1.77;;;;;;;21.27;67.48;101368.69;4996539;28;97781;-27
2023/07/22 09:28:09;;;;;;;3.90;1.95;;;;;;;21.08;64.65;101369.63;4995047;28;97529;-28
2023/07/22 09:30:40;;;;;;;2.95;1.67;;;;;;;20.85;67.31;101357.22;4994396;28;101015;-27
2023/07/22 09:33:19;;;;;;;3.50;1.70;;;;;;;20.67;64.67;101360.75;4996334;28;97901;-27
2023/07/22 09:35:46;;;;;;;2.35;1.65;;;;;;;20.38;64.45;101360.78;4994052;28;96938;-27
2023/07/22 09:38:12;;;;;;;5.32;2.00;;;;;;;20.13;66.43;101356.72;4994987;28;96866;-27
2023/07/22 09:40:41;;;;;;;2.95;1.52;;;;;;;19.89;65.48;101355.22;4994671;28;100851;-27
2023/07/22 09:43:12;;;;;;;1.55;1.13;;;;;;;19.83;67.17;101355.81;4994149;28;101342;-27
2023/07/22 09:45:37;;;;;;;7.18;1.60;;;;;;;19.71;64.88;101344.09;4995763;28;96749;-27
2023/07/22 09:48:03;;;;;;;2.10;1.30;;;;;;;19.59;66.62;101349.78;4994763;28;96901;-27
2023/07/22 09:50:29;;;;;;;3.58;1.30;;;;;;;19.48;66.38;101361.78;4994200;28;100815;-27
2023/07/22 09:53:06;;;;;;;3.90;1.60;;;;;;;19.43;66.44;101359.44;4995846;28;97925;-27
2023/07/22 09:55:32;;;;;;;5.80;1.75;;;;;;;19.38;66.86;101347.13;4994593;28;96697;-27
2023/07/22 09:58:03;;;;;;;3.05;1.58;;;;;;;19.35;65.24;101359.25;4994489;28;96956;-27
2023/07/22 10:00:30;;;;;;;6.95;1.40;;;;;;;19.29;66.48;101355.19;4993333;28;99430;-33
2023/07/22 10:02:57;;;;;;;2.17;1.38;;;;;;;19.25;64.58;101358.38;4988671;28;97845;-31
2023/07/22 10:05:24;;;;;;;2.28;1.15;;;;;;;19.29;65.67;101362.59;4986176;28;96815;-27
2023/07/22 10:07:52;;;;;;;3.83;1.63;;;;;;;19.31;65.37;101360.56;4974224;28;96902;-27
2023/07/22 10:10:19;;;;;;;2.13;1.40;;;;;;;19.30;63.98;101358.81;4974435;28;98048;-27
2023/07/22 10:12:45;;;;;;;2.33;1.33;;;;;;;19.30;64.60;101365.16;4973887;28;100788;-27
2023/07/22 10:15:13;;;;;;;2.60;1.10;;;;;;;19.28;65.32;101364.47;4974576;28;96571;-27
2023/07/22 10:17:43;;;;;;;3.42;1.30;;;;;;;19.27;66.57;101372.84;4971728;28;97226;-32
2023/07/22 10:20:15;;;;;;;1.90;0.98;;;;;;;19.18;64.86;101365.41;4972600;28;101991;-27
2023/07/22 10:22:43;;;;;;;2.17;1.13;;;;;;;19.14;65.25;101361.19;4972744;28;97787;-28
2023/07/22 10:25:11;;;;;;;2.17;1.33;;;;;;;19.13;66.12;101351.22;4973605;28;97128;-27
2023/07/22 10:27:39;;;;;;;3.05;1.60;;;;;;;19.19;67.03;101364.44;4973255;28;96816;-30
2023/07/22 10:30:05;;;;;;;3.13;1.40;;;;;;;19.26;66.92;101371.09;4973004;28;101315;-27
2023/07/22 10:32:34;;;;;;;6.25;1.60;;;;;;;19.28;66.48;101367.22;4973084;28;100975;-27
2023/07/22 10:35:00;;;;;;;2.97;1.60;;;;;;;19.37;66.48;101364.63;4972813;28;97235;-28
2023/07/22 10:37:34;;;;;;;4.63;1.40;;;;;;;19.44;66.13;101368.56;4974584;28;96828;-29
2023/07/22 10:40:02;;;;;;;3.70;1.65;;;;;;;19.42;66.24;101357.69;4975081;28;98005;-28
2023/07/22 10:42:27;;;;;;;4.22;1.13;;;;;;;19.47;65.59;101371.91;4973063;28;100860;-26
2023/07/22 10:44:52;;;;;;;2.17;1.38;;;;;;;19.47;65.79;101371.91;4972872;28;96713;-31
2023/07/22 10:47:36;;;;;;;2.53;1.35;;;;;;;19.35;65.12;101367.50;4972991;28;97048;-32
2023/07/22 10:50:09;;;;;;;2.28;1.17;;;;;;;19.43;65.83;101366.81;4985791;28;101162;-29
2023/07/22 10:52:42;;;;;;;2.47;1.40;;;;;;;19.47;65.07;101365.53;4989689;28;101019;-29
2023/07/22 10:55:17;;;;;;;3.85;1.50;;;;;;;19.48;65.97;101354.41;4992552;28;96624;-31
2023/07/22 10:57:51;;;;;;;1.55;0.98;;;;;;;19.46;63.63;101369.28;4991877;28;97316;-27
2023/07/22 11:00:20;;;;;;;1.88;1.02;;;;;;;19.59;64.34;101369.03;4994004;28;99486;-27
2023/07/22 11:02:47;;;;;;;3.28;1.13;;;;;;;19.66;64.64;101375.69;4994311;28;99217;-29
2023/07/22 11:05:16;;;;;;;1.88;0.95;;;;;;;19.76;63.20;101362.91;4992875;28;97165;-27
2023/07/22 11:07:47;;;;;;;1.88;0.77;;;;;;;19.91;63.18;101360.59;4993520;28;96816;-28
2023/07/22 11:10:16;;;;;;;1.83;0.90;;;;;;;20.03;62.85;101375.97;4992757;28;101035;-28
2023/07/22 11:12:44;;;;;;;3.25;0.95;;;;;;;20.02;62.72;101363.22;4992865;28;98046;-30
2023/07/22 11:15:09;;;;;;;1.27;0.93;;;;;;;20.00;62.76;101357.00;4990229;28;96953;-32
2023/07/22 11:17:35;;;;;;;2.25;1.08;;;;;;;20.06;62.32;101355.53;4993137;28;96985;-28